Time;durP1;ratioP1;P1;durP2;ratioP2;P2;SDS_P1;SDS_P2;PMS_P1;PMS_P2;Temp;Humidity;BMP_temperature;BMP_pressure;BME280_temperature;BME280_humidity;BME280_pressure;Samples;Min_cycle;Max_cycle;Signal;HPM_P1;HPM_P2
2021/12/28 00:00:42;;;;;;;;;;;;;;;9.46;32.81;99053.75;4469574;32;34248;-73
2021/12/28 00:03:10;;;;;;;;;;;;;;;9.60;32.45;99051.78;4469774;32;34087;-71
2021/12/28 00:05:37;;;;;;;;;;;;;;;9.74;32.25;99051.53;4476063;32;33378;-71
2021/12/28 00:08:04;;;;;;;;;;;;;;;9.63;32.37;99047.06;4476950;32;33065;-70
2021/12/28 00:10:32;;;;;;;;;;;;;;;9.61;32.21;99045.50;4469602;32;34420;-70
2021/12/28 00:13:00;;;;;;;;;;;;;;;9.71;32.09;99039.25;4477285;32;35329;-70
2021/12/28 00:17:59;;;;;;;;;;;;;;;9.84;31.67;99038.25;4476799;32;33699;-72
2021/12/28 00:20:27;;;;;;;;;;;;;;;9.38;32.80;99036.69;4470808;32;33803;-72
2021/12/28 00:22:54;;;;;;;;;;;;;;;9.52;32.47;99045.25;4465956;32;33501;-72
2021/12/28 00:25:22;;;;;;;;;;;;;;;9.31;33.40;99041.69;4466247;32;33411;-70
2021/12/28 00:27:49;;;;;;;;;;;;;;;9.48;33.22;99042.97;4470695;32;33692;-70
2021/12/28 00:30:17;;;;;;;;;;;;;;;9.65;32.93;99045.09;4468506;32;34351;-71
2021/12/28 00:32:46;;;;;;;;;;;;;;;9.17;34.17;99045.44;4463576;32;34783;-71
2021/12/28 00:35:14;;;;;;;;;;;;;;;9.24;34.36;99049.31;4466762;32;32969;-71
2021/12/28 00:37:41;;;;;;;;;;;;;;;9.27;34.90;99050.88;4437840;32;857334;-71
2021/12/28 00:40:09;;;;;;;;;;;;;;;9.37;35.04;99049.16;4465111;32;33655;-72
2021/12/28 00:42:36;;;;;;;;;;;;;;;9.68;33.70;99050.19;4470578;31;34728;-70
2021/12/28 00:45:04;;;;;;;;;;;;;;;9.65;34.09;99046.94;4472934;32;32316;-70
2021/12/28 00:47:31;;;;;;;;;;;;;;;9.28;34.83;99052.59;4473209;32;33398;-70
2021/12/28 00:49:59;;;;;;;;;;;;;;;9.15;35.45;99052.75;4467767;32;34100;-70
2021/12/28 00:52:26;;;;;;;;;;;;;;;9.31;35.21;99050.53;4478368;32;32983;-72
2021/12/28 00:54:53;;;;;;;;;;;;;;;9.29;35.36;99057.81;4471192;31;33735;-70
2021/12/28 00:57:21;;;;;;;;;;;;;;;9.21;35.41;99065.59;4477809;32;34228;-73
2021/12/28 00:59:48;;;;;;;;;;;;;;;9.00;36.40;99053.94;4469479;31;33165;-72
2021/12/28 01:02:16;;;;;;;;;;;;;;;8.75;37.00;99058.53;4471049;32;34319;-72
2021/12/28 01:04:43;;;;;;;;;;;;;;;8.49;37.40;99049.91;4469549;31;32260;-72
2021/12/28 01:07:11;;;;;;;;;;;;;;;8.75;37.22;99047.87;4471512;32;32805;-73
2021/12/28 01:09:41;;;;;;;;;;;;;;;8.67;37.48;99055.63;4465426;32;34380;-72
2021/12/28 01:12:09;;;;;;;;;;;;;;;8.39;38.27;99057.75;4469156;32;32733;-75
2021/12/28 01:14:37;;;;;;;;;;;;;;;8.55;37.96;99046.75;4471868;32;33163;-72
2021/12/28 01:17:05;;;;;;;;;;;;;;;8.29;38.49;99042.56;4467693;32;35081;-72
2021/12/28 01:19:32;;;;;;;;;;;;;;;8.47;38.60;99043.81;4473182;32;34418;-73
2021/12/28 01:22:03;;;;;;;;;;;;;;;8.41;39.09;99031.00;4476550;31;34461;-70
2021/12/28 01:24:30;;;;;;;;;;;;;;;8.30;39.28;99023.75;4473904;32;32620;-70
2021/12/28 01:26:58;;;;;;;;;;;;;;;8.44;39.46;99032.53;4473402;32;32954;-70
2021/12/28 01:29:25;;;;;;;;;;;;;;;8.37;39.78;99022.31;4468649;32;33947;-70
2021/12/28 01:31:52;;;;;;;;;;;;;;;8.43;39.80;99026.37;4467511;32;32961;-71
2021/12/28 01:34:20;;;;;;;;;;;;;;;8.46;39.82;99019.94;4476597;32;33576;-70
2021/12/28 01:36:47;;;;;;;;;;;;;;;8.78;39.77;99028.09;4470330;32;34262;-70
2021/12/28 01:39:14;;;;;;;;;;;;;;;8.75;39.41;99023.00;4471779;32;35143;-69
2021/12/28 01:41:42;;;;;;;;;;;;;;;9.14;38.44;99021.66;4475474;31;32924;-72
2021/12/28 01:44:10;;;;;;;;;;;;;;;9.32;38.21;99014.00;4468986;32;33045;-70
2021/12/28 01:46:38;;;;;;;;;;;;;;;9.58;37.52;99009.19;4472105;32;33373;-70
2021/12/28 01:49:06;;;;;;;;;;;;;;;9.65;37.71;99015.72;4477329;31;33761;-70
2021/12/28 01:51:33;;;;;;;;;;;;;;;9.43;38.13;99018.44;4466796;32;35149;-70
2021/12/28 01:54:01;;;;;;;;;;;;;;;9.56;37.88;99000.44;4468309;32;33420;-73
2021/12/28 01:56:31;;;;;;;;;;;;;;;9.86;37.23;98999.72;4473083;32;34225;-69
2021/12/28 01:58:59;;;;;;;;;;;;;;;9.81;37.33;99007.28;4468742;31;33718;-72
2021/12/28 02:01:26;;;;;;;;;;;;;;;9.76;37.40;99002.31;4473181;32;33829;-70
2021/12/28 02:03:55;;;;;;;;;;;;;;;9.40;38.12;99011.53;4473197;32;33445;-70
2021/12/28 02:06:25;;;;;;;;;;;;;;;9.53;38.45;99006.03;4477541;32;33920;-70
2021/12/28 02:08:53;;;;;;;;;;;;;;;9.28;39.31;99000.03;4472718;31;34291;-70
2021/12/28 02:11:20;;;;;;;;;;;;;;;8.92;40.07;98993.16;4465517;32;34019;-70
2021/12/28 02:13:48;;;;;;;;;;;;;;;8.21;41.99;98996.97;4471293;32;33334;-70
2021/12/28 02:16:15;;;;;;;;;;;;;;;7.57;43.92;98990.19;4468426;32;33799;-70
2021/12/28 02:18:43;;;;;;;;;;;;;;;8.06;43.16;98983.00;4474130;32;33610;-70
2021/12/28 02:21:10;;;;;;;;;;;;;;;6.87;45.31;98985.56;4469503;32;34507;-70
2021/12/28 02:23:38;;;;;;;;;;;;;;;8.27;42.25;98977.81;4472415;32;32118;-70
2021/12/28 02:26:06;;;;;;;;;;;;;;;8.54;41.78;98986.38;4469481;32;35167;-72
2021/12/28 02:28:33;;;;;;;;;;;;;;;7.66;42.52;98980.69;4478759;32;33998;-70
2021/12/28 02:31:02;;;;;;;;;;;;;;;8.20;42.08;98990.78;4474659;32;34270;-70
2021/12/28 02:33:30;;;;;;;;;;;;;;;8.63;41.34;98985.66;4470688;32;33272;-72
2021/12/28 02:35:58;;;;;;;;;;;;;;;8.12;42.59;98988.72;4472991;31;34274;-69
2021/12/28 02:38:26;;;;;;;;;;;;;;;7.68;42.90;98990.25;4465834;32;32690;-70
2021/12/28 02:40:54;;;;;;;;;;;;;;;6.67;46.11;98984.31;4465356;32;33079;-70
2021/12/28 02:43:21;;;;;;;;;;;;;;;6.52;46.31;98988.06;4466106;32;34145;-70
2021/12/28 02:45:57;;;;;;;;;;;;;;;6.07;47.61;98995.63;4473302;32;34848;-72
2021/12/28 02:48:25;;;;;;;;;;;;;;;5.28;50.66;98989.31;4469536;32;35087;-73
2021/12/28 02:50:55;;;;;;;;;;;;;;;6.94;46.58;98986.81;4470038;32;34012;-72
2021/12/28 02:53:23;;;;;;;;;;;;;;;5.44;49.79;98993.63;4471631;31;32145;-72
2021/12/28 02:55:51;;;;;;;;;;;;;;;6.35;47.48;98999.84;4468494;32;32827;-71
2021/12/28 02:58:24;;;;;;;;;;;;;;;6.10;48.26;98984.78;4468988;32;34471;-70
2021/12/28 03:01:03;;;;;;;;;;;;;;;7.13;45.63;98990.81;4470620;32;32884;-70
2021/12/28 03:03:32;;;;;;;;;;;;;;;8.01;43.26;98979.84;4472872;31;32323;-72
2021/12/28 03:06:01;;;;;;;;;;;;;;;6.13;47.37;98987.22;4474803;32;34743;-71
2021/12/28 03:08:29;;;;;;;;;;;;;;;7.60;44.07;98974.00;4473352;31;34675;-72
2021/12/28 03:10:57;;;;;;;;;;;;;;;8.19;42.70;98977.59;4474334;32;34408;-70
2021/12/28 03:13:26;;;;;;;;;;;;;;;7.11;44.99;98974.97;4470325;32;33481;-70
2021/12/28 03:15:54;;;;;;;;;;;;;;;8.36;42.20;98988.63;4473081;32;33874;-69
2021/12/28 03:18:22;;;;;;;;;;;;;;;8.58;41.61;98971.84;4471652;32;34377;-71
2021/12/28 03:20:50;;;;;;;;;;;;;;;8.54;41.87;98980.19;4466771;32;33993;-71
2021/12/28 03:23:19;;;;;;;;;;;;;;;8.44;42.21;98977.38;4467807;32;32169;-71
2021/12/28 03:25:47;;;;;;;;;;;;;;;7.70;42.95;98980.34;4470256;31;35023;-71
2021/12/28 03:28:15;;;;;;;;;;;;;;;6.90;46.27;98987.13;4467680;32;34501;-70
2021/12/28 03:30:43;;;;;;;;;;;;;;;7.65;43.95;98982.50;4470060;31;34205;-72
2021/12/28 03:33:10;;;;;;;;;;;;;;;8.02;43.72;98981.53;4467946;32;33483;-70
2021/12/28 03:35:38;;;;;;;;;;;;;;;7.80;44.04;98985.84;4473242;32;33901;-70
2021/12/28 03:38:05;;;;;;;;;;;;;;;6.65;45.91;98985.41;4467485;32;34383;-70
2021/12/28 03:40:33;;;;;;;;;;;;;;;7.34;45.13;98988.41;4473764;32;34499;-71
2021/12/28 03:43:00;;;;;;;;;;;;;;;5.84;48.21;98992.69;4468358;32;33099;-72
2021/12/28 03:45:28;;;;;;;;;;;;;;;7.41;45.42;98989.63;4469923;32;34964;-70
2021/12/28 03:47:55;;;;;;;;;;;;;;;6.24;47.47;98991.78;4469067;32;34291;-70
2021/12/28 03:50:25;;;;;;;;;;;;;;;6.52;47.34;98986.25;4475885;32;32654;-71
2021/12/28 03:52:53;;;;;;;;;;;;;;;7.95;43.96;98991.81;4474804;31;34740;-71
2021/12/28 03:55:22;;;;;;;;;;;;;;;6.96;45.19;98992.03;4469270;32;34008;-72
2021/12/28 03:57:49;;;;;;;;;;;;;;;6.88;47.06;98992.59;4468395;32;33708;-74
2021/12/28 04:00:18;;;;;;;;;;;;;;;7.52;44.31;98992.38;4468304;32;34068;-73
2021/12/28 04:02:46;;;;;;;;;;;;;;;7.05;45.93;98994.03;4472478;32;33606;-75
2021/12/28 04:05:14;;;;;;;;;;;;;;;8.15;43.61;98988.50;4468115;32;34143;-74
2021/12/28 04:07:41;;;;;;;;;;;;;;;7.92;44.02;98998.22;4470292;32;33775;-73
2021/12/28 04:10:10;;;;;;;;;;;;;;;7.46;45.24;98999.00;4473394;32;33498;-73
2021/12/28 04:12:39;;;;;;;;;;;;;;;8.46;43.03;98990.62;4469645;32;33052;-72
2021/12/28 04:15:07;;;;;;;;;;;;;;;7.70;44.70;98993.66;4468397;32;34181;-74
2021/12/28 04:17:37;;;;;;;;;;;;;;;7.74;45.26;98985.41;4473237;32;33682;-73
2021/12/28 04:20:09;;;;;;;;;;;;;;;7.89;44.60;98990.44;4472238;32;33332;-73
2021/12/28 04:22:37;;;;;;;;;;;;;;;7.26;46.35;98990.78;4471243;32;33428;-78
2021/12/28 04:25:05;;;;;;;;;;;;;;;8.67;42.94;98993.41;4472342;32;34279;-75
2021/12/28 04:27:33;;;;;;;;;;;;;;;8.35;43.37;98991.44;4478464;32;33110;-77
2021/12/28 04:30:01;;;;;;;;;;;;;;;7.58;45.55;98996.41;4475975;32;32837;-89
2021/12/28 04:32:28;;;;;;;;;;;;;;;6.54;49.37;98988.78;4452568;32;32137;-74
2021/12/28 04:34:55;;;;;;;;;;;;;;;6.51;50.00;98994.31;4480477;32;33595;-73
2021/12/28 04:37:23;;;;;;;;;;;;;;;6.43;51.02;98991.38;4478045;32;33298;-78
2021/12/28 04:39:51;;;;;;;;;;;;;;;5.60;52.99;99002.25;4465537;32;34255;-74
2021/12/28 04:42:18;;;;;;;;;;;;;;;5.19;53.41;99003.16;4475775;32;33240;-76
2021/12/28 04:44:49;;;;;;;;;;;;;;;5.51;54.31;98997.56;4476145;32;32848;-74
2021/12/28 04:47:16;;;;;;;;;;;;;;;5.31;55.31;98993.56;4472228;32;33529;-73
2021/12/28 04:49:44;;;;;;;;;;;;;;;5.75;53.63;98995.94;4476119;32;35269;-72
2021/12/28 04:52:12;;;;;;;;;;;;;;;6.11;52.57;98994.44;4480829;32;33660;-72
2021/12/28 04:54:39;;;;;;;;;;;;;;;5.16;54.67;98991.91;4480204;32;34108;-76
2021/12/28 04:57:06;;;;;;;;;;;;;;;4.38;57.77;98989.72;4466670;32;33092;-73
2021/12/28 04:59:34;;;;;;;;;;;;;;;4.76;55.98;98990.00;4473158;32;34163;-73
2021/12/28 05:02:02;;;;;;;;;;;;;;;4.80;56.49;98986.19;4471767;32;33124;-72
2021/12/28 05:04:29;;;;;;;;;;;;;;;5.28;55.57;98976.03;4474444;32;32661;-74
2021/12/28 05:06:57;;;;;;;;;;;;;;;5.94;53.67;98979.66;4477963;32;35533;-74
2021/12/28 05:09:24;;;;;;;;;;;;;;;5.13;55.47;98987.63;4474686;32;35026;-74
2021/12/28 05:11:51;;;;;;;;;;;;;;;6.51;52.01;98989.84;4472562;32;33529;-75
2021/12/28 05:14:20;;;;;;;;;;;;;;;6.08;52.70;98986.69;4477211;32;32488;-74
2021/12/28 05:16:48;;;;;;;;;;;;;;;5.26;54.67;98983.22;4474219;32;35011;-73
2021/12/28 05:19:15;;;;;;;;;;;;;;;6.19;52.54;98994.75;4474589;32;33900;-76
2021/12/28 05:21:44;;;;;;;;;;;;;;;6.28;52.69;98987.97;4467895;32;32964;-74
2021/12/28 05:24:11;;;;;;;;;;;;;;;4.96;55.87;98996.69;4471779;32;33855;-73
2021/12/28 05:26:38;;;;;;;;;;;;;;;5.36;54.89;98988.78;4476813;32;33477;-73
2021/12/28 05:29:06;;;;;;;;;;;;;;;7.02;50.51;98986.25;4476239;32;35054;-72
2021/12/28 05:31:33;;;;;;;;;;;;;;;6.02;52.77;98997.72;4469065;32;34291;-74
2021/12/28 05:34:01;;;;;;;;;;;;;;;6.37;51.76;98997.97;4472333;32;35186;-74
2021/12/28 05:36:28;;;;;;;;;;;;;;;7.48;49.01;98996.22;4471495;32;34446;-74
2021/12/28 05:38:55;;;;;;;;;;;;;;;7.22;50.46;99006.09;4469734;32;34494;-74
2021/12/28 05:41:23;;;;;;;;;;;;;;;7.22;49.68;99000.78;4474513;32;33608;-73
2021/12/28 05:43:50;;;;;;;;;;;;;;;7.65;48.12;99002.97;4467317;32;34254;-74
2021/12/28 05:46:18;;;;;;;;;;;;;;;5.45;53.90;99004.13;4474925;32;34023;-74
2021/12/28 05:48:47;;;;;;;;;;;;;;;7.08;50.65;98992.97;4474586;32;34222;-75
2021/12/28 05:51:14;;;;;;;;;;;;;;;6.67;51.19;98999.41;4475699;32;33469;-73
2021/12/28 05:53:42;;;;;;;;;;;;;;;6.91;50.55;99007.47;4467468;32;32653;-72
2021/12/28 05:56:09;;;;;;;;;;;;;;;5.46;54.82;99012.94;4470031;32;34343;-74
2021/12/28 05:58:36;;;;;;;;;;;;;;;6.49;51.64;99017.53;4470008;32;33337;-72
2021/12/28 06:01:04;;;;;;;;;;;;;;;6.07;53.40;99012.41;4473731;32;34008;-72
2021/12/28 06:03:32;;;;;;;;;;;;;;;5.90;53.35;99017.09;4467133;32;33112;-71
2021/12/28 06:05:59;;;;;;;;;;;;;;;6.01;53.29;99017.28;4467413;32;33989;-72
2021/12/28 06:08:26;;;;;;;;;;;;;;;5.76;54.02;99021.53;4472765;32;34326;-73
2021/12/28 06:10:59;;;;;;;;;;;;;;;7.05;51.00;99019.78;4472855;32;34496;-72
2021/12/28 06:13:26;;;;;;;;;;;;;;;7.28;49.74;99023.44;4473385;32;33629;-72
2021/12/28 06:15:54;;;;;;;;;;;;;;;7.24;49.31;99030.81;4477815;32;32874;-73
2021/12/28 06:18:21;;;;;;;;;;;;;;;5.78;53.90;99027.59;4469004;32;34233;-73
2021/12/28 06:20:49;;;;;;;;;;;;;;;5.21;54.57;99032.25;4472208;32;31969;-74
2021/12/28 06:23:17;;;;;;;;;;;;;;;7.10;50.28;99025.66;4471786;32;33907;-74
2021/12/28 06:25:44;;;;;;;;;;;;;;;6.56;51.23;99015.28;4473156;32;34435;-74
2021/12/28 06:28:12;;;;;;;;;;;;;;;6.90;50.82;99025.25;4471916;32;34763;-73
2021/12/28 06:30:39;;;;;;;;;;;;;;;6.58;51.42;99030.19;4474923;32;33359;-73
2021/12/28 06:33:07;;;;;;;;;;;;;;;7.34;49.71;99021.19;4469812;32;34250;-73
2021/12/28 06:35:34;;;;;;;;;;;;;;;7.66;48.53;99029.47;4475975;32;34010;-73
2021/12/28 06:38:01;;;;;;;;;;;;;;;7.52;49.23;99024.31;4477665;32;34342;-73
2021/12/28 06:40:29;;;;;;;;;;;;;;;7.79;48.62;99025.91;4467698;32;32907;-73
2021/12/28 06:42:56;;;;;;;;;;;;;;;7.00;49.74;99023.63;4477966;32;34171;-73
2021/12/28 06:45:23;;;;;;;;;;;;;;;7.10;50.58;99031.81;4479579;32;35173;-73
2021/12/28 06:47:51;;;;;;;;;;;;;;;7.61;48.09;99025.47;4466580;32;34135;-73
2021/12/28 06:50:18;;;;;;;;;;;;;;;6.13;51.27;99037.72;4474477;32;33508;-72
2021/12/28 06:52:46;;;;;;;;;;;;;;;6.22;52.37;99026.44;4470108;32;34280;-72
2021/12/28 06:55:13;;;;;;;;;;;;;;;6.97;50.16;99031.84;4475435;32;34039;-73
2021/12/28 06:57:41;;;;;;;;;;;;;;;6.77;50.81;99029.72;4477930;32;32957;-72
2021/12/28 07:00:10;;;;;;;;;;;;;;;7.55;48.79;99039.25;4474806;32;32450;-73
2021/12/28 07:02:37;;;;;;;;;;;;;;;5.80;52.14;99048.72;4467727;32;34079;-72
2021/12/28 07:05:06;;;;;;;;;;;;;;;6.71;50.90;99044.31;4475577;32;34303;-72
2021/12/28 07:07:33;;;;;;;;;;;;;;;7.52;49.04;99047.44;4472876;32;33253;-72
2021/12/28 07:10:01;;;;;;;;;;;;;;;6.57;50.70;99054.22;4469485;32;32697;-73
2021/12/28 07:12:28;;;;;;;;;;;;;;;4.93;55.46;99059.66;4471576;32;34200;-73
2021/12/28 07:14:55;;;;;;;;;;;;;;;5.30;54.23;99059.06;4473244;32;34327;-72
2021/12/28 07:17:23;;;;;;;;;;;;;;;6.19;53.11;99061.19;4470899;32;35088;-74
2021/12/28 07:19:50;;;;;;;;;;;;;;;6.71;50.70;99065.59;4465938;32;33544;-73
2021/12/28 07:22:17;;;;;;;;;;;;;;;7.09;50.24;99062.03;4471856;32;34347;-75
2021/12/28 07:24:45;;;;;;;;;;;;;;;5.73;54.21;99058.91;4476657;32;34298;-73
2021/12/28 07:27:12;;;;;;;;;;;;;;;5.93;53.72;99070.06;4465936;32;34140;-74
2021/12/28 07:29:40;;;;;;;;;;;;;;;5.91;53.42;99063.97;4468065;32;34517;-74
2021/12/28 07:32:08;;;;;;;;;;;;;;;6.11;53.57;99055.53;4469599;32;34239;-74
2021/12/28 07:34:35;;;;;;;;;;;;;;;6.61;51.64;99058.34;4474009;32;33121;-74
2021/12/28 07:37:03;;;;;;;;;;;;;;;5.80;53.37;99054.88;4465793;32;34292;-73
2021/12/28 07:39:30;;;;;;;;;;;;;;;5.84;54.13;99063.50;4470027;32;32535;-74
2021/12/28 07:41:58;;;;;;;;;;;;;;;6.79;51.55;99064.22;4468098;32;33952;-75
2021/12/28 07:44:26;;;;;;;;;;;;;;;5.71;53.69;99074.09;4473253;32;32787;-74
2021/12/28 07:46:54;;;;;;;;;;;;;;;5.69;54.39;99064.53;4470492;32;34456;-76
2021/12/28 07:49:21;;;;;;;;;;;;;;;6.88;51.17;99066.22;4470033;32;33542;-75
2021/12/28 07:51:49;;;;;;;;;;;;;;;7.18;50.48;99063.19;4473641;32;35721;-75
2021/12/28 07:54:16;;;;;;;;;;;;;;;7.28;49.58;99066.88;4459677;32;33925;-76
2021/12/28 07:56:44;;;;;;;;;;;;;;;7.02;49.73;99059.91;4472556;32;34163;-75
2021/12/28 07:59:11;;;;;;;;;;;;;;;5.52;55.01;99076.22;4474721;32;33947;-75
2021/12/28 08:01:39;;;;;;;;;;;;;;;4.76;56.86;99084.59;4474210;32;35656;-76
2021/12/28 08:04:07;;;;;;;;;;;;;;;5.90;53.95;99079.03;4462517;32;35594;-74
2021/12/28 08:06:34;;;;;;;;;;;;;;;6.25;53.35;99068.75;4478308;32;34433;-75
2021/12/28 08:09:02;;;;;;;;;;;;;;;6.42;52.90;99064.97;4474266;32;33673;-74
2021/12/28 08:11:29;;;;;;;;;;;;;;;5.96;53.94;99061.88;4480074;32;32311;-76
2021/12/28 08:13:57;;;;;;;;;;;;;;;6.45;52.48;99067.41;4476562;32;34175;-75
2021/12/28 08:16:24;;;;;;;;;;;;;;;7.28;50.20;99069.53;4471378;32;32386;-75
2021/12/28 08:18:52;;;;;;;;;;;;;;;5.56;54.29;99067.12;4476695;32;32755;-75
2021/12/28 08:21:39;;;;;;;;;;;;;;;6.06;52.36;99058.50;4470464;32;34200;-76
2021/12/28 08:24:07;;;;;;;;;;;;;;;6.07;53.46;99054.06;4481265;32;35399;-77
2021/12/28 08:26:34;;;;;;;;;;;;;;;7.23;51.17;99053.91;4471202;32;33907;-76
2021/12/28 08:29:01;;;;;;;;;;;;;;;7.53;48.95;99054.47;4476994;32;33148;-78
2021/12/28 08:31:29;;;;;;;;;;;;;;;6.47;52.46;99060.16;4476770;32;34171;-75
2021/12/28 08:33:56;;;;;;;;;;;;;;;7.02;50.50;99052.78;4478486;32;35415;-77
2021/12/28 08:36:24;;;;;;;;;;;;;;;6.53;52.48;99061.53;4470107;32;35124;-75
2021/12/28 08:38:51;;;;;;;;;;;;;;;7.78;49.14;99057.03;4474314;32;33488;-76
2021/12/28 08:41:18;;;;;;;;;;;;;;;6.61;51.99;99063.66;4477801;32;34246;-77
2021/12/28 08:43:46;;;;;;;;;;;;;;;5.95;53.18;99074.31;4469743;32;35574;-76
2021/12/28 08:46:14;;;;;;;;;;;;;;;6.97;51.11;99071.75;4469474;32;34060;-77
2021/12/28 08:48:41;;;;;;;;;;;;;;;8.38;47.40;99074.72;4470043;32;33522;-77
2021/12/28 08:51:09;;;;;;;;;;;;;;;7.65;49.59;99073.06;4473662;32;32994;-76
2021/12/28 08:53:36;;;;;;;;;;;;;;;7.26;50.50;99082.12;4477452;32;34424;-74
2021/12/28 08:56:04;;;;;;;;;;;;;;;7.96;48.31;99083.25;4472631;32;34667;-77
2021/12/28 08:58:31;;;;;;;;;;;;;;;8.22;47.47;99074.16;4469962;32;34478;-76
2021/12/28 09:01:00;;;;;;;;;;;;;;;8.35;47.24;99074.94;4468862;32;34303;-78
2021/12/28 09:03:28;;;;;;;;;;;;;;;8.73;46.39;99071.16;4468403;32;34264;-78
2021/12/28 09:05:56;;;;;;;;;;;;;;;8.39;46.35;99068.41;4472998;32;33313;-77
2021/12/28 09:08:24;;;;;;;;;;;;;;;9.53;44.48;99063.00;4467305;32;32579;-78
2021/12/28 09:10:51;;;;;;;;;;;;;;;9.53;44.36;99056.78;4467456;32;32407;-74
2021/12/28 09:13:19;;;;;;;;;;;;;;;9.44;44.66;99050.38;4473794;32;32801;-76
2021/12/28 09:15:46;;;;;;;;;;;;;;;8.22;47.02;99046.63;4471558;32;34134;-76
2021/12/28 09:18:14;;;;;;;;;;;;;;;6.89;51.77;99050.13;4473460;32;33301;-79
2021/12/28 09:20:42;;;;;;;;;;;;;;;6.46;52.86;99061.13;4472447;32;33820;-79
2021/12/28 09:23:10;;;;;;;;;;;;;;;8.13;48.25;99045.53;4469772;32;33293;-77
2021/12/28 09:25:38;;;;;;;;;;;;;;;8.79;46.71;99041.31;4477106;32;34841;-79
2021/12/28 09:28:06;;;;;;;;;;;;;;;7.61;49.11;99047.63;4469427;32;33420;-78
2021/12/28 09:30:35;;;;;;;;;;;;;;;7.92;48.25;99048.84;4474161;32;34236;-76
2021/12/28 09:33:02;;;;;;;;;;;;;;;7.75;49.30;99053.75;4470447;32;34337;-78
2021/12/28 09:35:29;;;;;;;;;;;;;;;8.85;46.07;99051.50;4469610;32;32657;-82
2021/12/28 09:37:57;;;;;;;;;;;;;;;9.07;45.47;99061.34;4453366;32;33434;-78
2021/12/28 09:40:28;;;;;;;;;;;;;;;7.13;49.94;99049.38;4461641;32;33448;-80
2021/12/28 09:42:55;;;;;;;;;;;;;;;9.06;46.13;99050.78;4468627;32;32848;-74
2021/12/28 09:45:23;;;;;;;;;;;;;;;8.56;46.79;99053.78;4476520;32;35078;-74
2021/12/28 09:47:51;;;;;;;;;;;;;;;8.30;47.17;99045.09;4468093;32;32770;-80
2021/12/28 09:50:18;;;;;;;;;;;;;;;8.24;47.27;99045.56;4449611;32;32717;-84
2021/12/28 09:52:46;;;;;;;;;;;;;;;8.79;46.47;99048.47;4449602;32;34116;-83
2021/12/28 09:55:18;;;;;;;;;;;;;;;8.08;48.50;99042.34;4456366;31;33839;-84
2021/12/28 09:57:47;;;;;;;;;;;;;;;8.63;47.07;99052.34;4452243;32;32318;-85
2021/12/28 10:00:15;;;;;;;;;;;;;;;8.61;47.20;99059.62;4443473;32;34397;-75
2021/12/28 10:03:03;;;;;;;;;;;;;;;8.79;46.91;99056.47;4471200;32;34400;-72
2021/12/28 10:05:31;;;;;;;;;;;;;;;8.07;49.32;99048.66;4469689;32;34330;-76
2021/12/28 10:07:59;;;;;;;;;;;;;;;6.51;51.73;99052.81;4469533;32;32435;-74
2021/12/28 10:10:32;;;;;;;;;;;;;;;7.43;50.46;99055.13;4470222;32;34969;-74
2021/12/28 10:13:01;;;;;;;;;;;;;;;8.60;47.43;99057.94;4468162;32;35247;-76
2021/12/28 10:15:36;;;;;;;;;;;;;;;7.01;51.12;99051.09;4470287;32;32577;-74
2021/12/28 10:18:05;;;;;;;;;;;;;;;7.68;49.69;99048.87;4472191;32;33427;-74
2021/12/28 10:20:37;;;;;;;;;;;;;;;7.44;49.30;99037.34;4471521;32;33734;-74
2021/12/28 10:23:05;;;;;;;;;;;;;;;7.44;50.09;99043.50;4469713;32;33629;-74
2021/12/28 10:25:37;;;;;;;;;;;;;;;6.40;53.04;99040.28;4467860;32;33999;-74
2021/12/28 10:28:06;;;;;;;;;;;;;;;6.96;52.43;99030.12;4476367;32;33491;-73
2021/12/28 10:30:44;;;;;;;;;;;;;;;7.27;51.15;99027.09;4468529;32;34176;-74
2021/12/28 10:33:13;;;;;;;;;;;;;;;6.59;52.71;99031.88;4472827;32;33994;-74
2021/12/28 10:35:42;;;;;;;;;;;;;;;6.34;53.63;99027.41;4471531;32;34440;-76
2021/12/28 10:38:11;;;;;;;;;;;;;;;5.19;55.85;99020.88;4477509;32;31473;-77
2021/12/28 10:41:01;;;;;;;;;;;;;;;5.78;55.79;99021.44;4467472;32;33271;-73
2021/12/28 10:43:30;;;;;;;;;;;;;;;5.64;56.17;99018.84;4467955;32;34167;-73
2021/12/28 10:46:01;;;;;;;;;;;;;;;3.49;63.55;99026.75;4470596;32;34997;-73
2021/12/28 10:48:32;;;;;;;;;;;;;;;5.07;58.12;99030.47;4471495;32;31747;-74
2021/12/28 10:51:02;;;;;;;;;;;;;;;5.44;58.02;99023.66;4469800;32;35188;-75
2021/12/28 10:53:44;;;;;;;;;;;;;;;5.63;58.15;99017.16;4467469;32;33652;-75
2021/12/28 10:56:12;;;;;;;;;;;;;;;5.67;56.02;99008.88;4467950;32;34115;-75
2021/12/28 10:58:41;;;;;;;;;;;;;;;6.86;53.63;99001.63;4478148;32;33075;-75
2021/12/28 11:01:11;;;;;;;;;;;;;;;6.48;53.58;98998.03;4459276;32;32360;-75
2021/12/28 11:03:40;;;;;;;;;;;;;;;6.95;52.97;98993.84;4475406;32;34350;-75
2021/12/28 11:06:13;;;;;;;;;;;;;;;6.37;53.67;98995.28;4468113;32;35126;-75
2021/12/28 11:08:42;;;;;;;;;;;;;;;5.87;55.75;99007.53;4474200;32;33531;-74
2021/12/28 11:11:10;;;;;;;;;;;;;;;5.59;56.51;99008.53;4472278;32;33841;-75
2021/12/28 11:13:37;;;;;;;;;;;;;;;5.43;57.15;99006.03;4478679;32;35402;-75
2021/12/28 11:16:06;;;;;;;;;;;;;;;6.55;52.67;99006.47;4474850;32;33391;-75
2021/12/28 11:18:35;;;;;;;;;;;;;;;5.99;54.00;99005.91;4473973;32;33261;-75
2021/12/28 11:21:22;;;;;;;;;;;;;;;5.41;56.85;98999.12;4468478;32;33112;-75
2021/12/28 11:23:50;;;;;;;;;;;;;;;6.15;54.57;98987.94;4478174;32;34829;-74
2021/12/28 11:26:22;;;;;;;;;;;;;;;7.07;51.79;98983.28;4469993;32;34445;-75
2021/12/28 11:28:52;;;;;;;;;;;;;;;6.00;54.81;98976.59;4469581;32;33364;-74
2021/12/28 11:31:21;;;;;;;;;;;;;;;5.23;57.87;98979.94;4462813;32;35125;-75
2021/12/28 11:33:52;;;;;;;;;;;;;;;6.07;55.89;98977.88;4465280;32;33593;-75
2021/12/28 11:36:21;;;;;;;;;;;;;;;5.93;55.97;98974.44;4471451;32;34365;-76
2021/12/28 11:38:48;;;;;;;;;;;;;;;4.51;59.58;98980.06;4472673;32;33970;-76
2021/12/28 11:41:16;;;;;;;;;;;;;;;4.62;59.82;98969.66;4470920;32;34242;-75
2021/12/28 11:43:44;;;;;;;;;;;;;;;6.20;54.75;98964.59;4469411;32;33123;-75
2021/12/28 11:46:11;;;;;;;;;;;;;;;6.93;53.50;98952.34;4476097;32;34719;-76
2021/12/28 11:48:39;;;;;;;;;;;;;;;7.18;52.53;98960.22;4471367;32;33365;-76
2021/12/28 11:51:06;;;;;;;;;;;;;;;6.80;53.59;98949.72;4469192;32;34090;-75
2021/12/28 11:53:35;;;;;;;;;;;;;;;5.58;56.94;98945.75;4476893;32;34279;-74
2021/12/28 11:56:03;;;;;;;;;;;;;;;6.52;53.96;98934.91;4475354;32;33921;-75
2021/12/28 11:58:49;;;;;;;;;;;;;;;6.42;54.44;98928.50;4466089;32;32600;-76
2021/12/28 12:01:37;;;;;;;;;;;;;;;6.61;53.98;98917.41;4472393;32;33598;-76
2021/12/28 12:04:25;;;;;;;;;;;;;;;6.17;54.40;98919.63;4474130;32;35481;-76
2021/12/28 12:07:01;;;;;;;;;;;;;;;5.57;55.68;98918.37;4474022;32;33798;-74
2021/12/28 12:09:55;;;;;;;;;;;;;;;6.84;53.06;98899.81;4470307;32;33179;-76
2021/12/28 12:12:33;;;;;;;;;;;;;;;4.18;59.86;98914.13;4472333;32;34671;-76
2021/12/28 12:15:03;;;;;;;;;;;;;;;4.47;59.79;98914.13;4476953;31;34444;-76
2021/12/28 12:17:30;;;;;;;;;;;;;;;3.92;62.57;98894.56;4466420;32;34279;-75
2021/12/28 12:19:58;;;;;;;;;;;;;;;5.18;59.54;98889.19;4465358;32;33845;-76
2021/12/28 12:22:32;;;;;;;;;;;;;;;5.78;57.09;98886.88;4468256;32;33807;-77
2021/12/28 12:25:04;;;;;;;;;;;;;;;5.03;58.18;98885.75;4470856;32;34406;-77
2021/12/28 12:27:41;;;;;;;;;;;;;;;5.32;59.02;98886.47;4475125;32;35438;-77
2021/12/28 12:30:34;;;;;;;;;;;;;;;5.77;56.71;98879.84;4469624;32;32037;-77
2021/12/28 12:33:06;;;;;;;;;;;;;;;4.44;60.03;98886.84;4465898;32;32703;-77
2021/12/28 12:35:51;;;;;;;;;;;;;;;5.25;58.20;98880.72;4470712;32;34410;-77
2021/12/28 12:38:24;;;;;;;;;;;;;;;5.97;55.94;98874.97;4468927;32;35264;-77
2021/12/28 12:40:52;;;;;;;;;;;;;;;6.25;55.49;98880.06;4474679;32;33328;-77
2021/12/28 12:43:20;;;;;;;;;;;;;;;6.07;55.14;98876.06;4469552;32;34448;-77
2021/12/28 12:45:51;;;;;;;;;;;;;;;6.51;54.99;98875.53;4473293;32;35373;-77
2021/12/28 12:48:31;;;;;;;;;;;;;;;5.72;56.93;98868.69;4474850;32;34267;-76
2021/12/28 12:51:17;;;;;;;;;;;;;;;5.62;56.54;98867.63;4471861;32;31405;-76
2021/12/28 12:53:46;;;;;;;;;;;;;;;5.22;57.19;98880.91;4472868;32;32831;-74
2021/12/28 12:56:14;;;;;;;;;;;;;;;5.94;55.91;98881.37;4469597;32;34139;-77
2021/12/28 12:58:45;;;;;;;;;;;;;;;6.59;55.00;98877.66;4471327;32;32741;-76
2021/12/28 13:01:35;;;;;;;;;;;;;;;5.40;57.63;98883.31;4469782;32;33437;-77
2021/12/28 13:04:05;;;;;;;;;;;;;;;6.92;54.24;98886.81;4468939;32;34084;-76
2021/12/28 13:06:41;;;;;;;;;;;;;;;5.54;58.15;98877.91;4467356;32;34207;-78
2021/12/28 13:09:15;;;;;;;;;;;;;;;6.15;56.66;98881.66;4475957;32;35544;-75